createdAt,value
2018-06-18T00:02:19.054Z,7.17
2018-06-18T00:04:53.448Z,8.73
2018-06-18T00:07:28.484Z,6.73
2018-06-18T00:10:02.709Z,6.80
2018-06-18T00:12:37.548Z,9.13
2018-06-18T00:15:11.835Z,7.93
2018-06-18T00:17:46.842Z,6.63
2018-06-18T00:20:21.145Z,8.37
2018-06-18T00:22:55.737Z,6.77
2018-06-18T00:25:30.519Z,6.10
2018-06-18T00:28:05.383Z,7.53
2018-06-18T00:30:40.049Z,7.17
2018-06-18T00:33:15.063Z,8.30
2018-06-18T00:35:49.236Z,5.60
2018-06-18T00:38:24.077Z,7.70
2018-06-18T00:40:58.592Z,6.00
2018-06-18T00:43:33.374Z,6.27
2018-06-18T00:46:08.196Z,6.90
2018-06-18T00:48:43.072Z,8.17
2018-06-18T00:51:17.662Z,6.33
2018-06-18T00:53:52.432Z,7.80
2018-06-18T00:56:27.026Z,8.60
2018-06-18T00:59:01.981Z,7.13
2018-06-18T01:01:36.510Z,6.73
2018-06-18T01:04:11.706Z,7.03
2018-06-18T01:06:46.201Z,8.33
2018-06-18T01:09:21.565Z,6.80
2018-06-18T01:11:55.876Z,8.23
2018-06-18T01:14:30.957Z,6.67
2018-06-18T01:17:05.302Z,6.77
2018-06-18T01:19:40.001Z,7.27
2018-06-18T01:22:14.661Z,6.97
2018-06-18T01:25:01.614Z,6.57
2018-06-18T01:27:36.627Z,5.40
2018-06-18T01:30:11.388Z,6.03
2018-06-18T01:32:46.018Z,6.67
2018-06-18T01:35:20.795Z,6.17
2018-06-18T01:37:55.560Z,7.93
2018-06-18T01:40:30.311Z,5.90
2018-06-18T01:43:05.105Z,6.53
2018-06-18T01:45:40.019Z,6.43
2018-06-18T01:48:14.630Z,7.90
2018-06-18T01:50:49.068Z,7.03
2018-06-18T01:53:23.835Z,6.60
2018-06-18T01:55:58.631Z,6.30
2018-06-18T01:58:33.296Z,5.37
2018-06-18T02:01:08.085Z,5.70
2018-06-18T02:03:42.984Z,6.17
2018-06-18T02:06:17.581Z,7.57
2018-06-18T02:08:52.304Z,7.47
2018-06-18T02:11:26.767Z,6.77
2018-06-18T02:14:01.935Z,6.70
2018-06-18T02:16:36.657Z,7.00
2018-06-18T02:19:11.476Z,7.17
2018-06-18T02:21:46.161Z,9.57
2018-06-18T02:24:20.977Z,7.07
2018-06-18T02:28:02.225Z,6.40
2018-06-18T02:30:42.658Z,6.50
2018-06-18T02:34:22.890Z,7.77
2018-06-18T02:37:02.771Z,8.33
2018-06-18T02:39:43.401Z,6.57
2018-06-18T02:42:18.660Z,6.23
2018-06-18T02:44:53.225Z,9.27
2018-06-18T02:47:27.963Z,7.37
2018-06-18T02:50:02.862Z,7.07
2018-06-18T02:52:37.077Z,7.07
2018-06-18T02:55:11.771Z,8.87
2018-06-18T02:57:46.421Z,6.90
2018-06-18T03:00:21.250Z,8.33
2018-06-18T03:02:55.845Z,7.63
2018-06-18T03:05:30.730Z,7.47
2018-06-18T03:08:05.472Z,7.00
2018-06-18T03:10:40.155Z,6.40
2018-06-18T03:13:15.246Z,7.33
2018-06-18T03:15:49.764Z,8.63
2018-06-18T03:18:30.386Z,7.50
2018-06-18T03:21:10.766Z,7.90
2018-06-18T03:23:51.742Z,7.00
2018-06-18T03:26:32.167Z,6.90
2018-06-18T03:29:12.273Z,7.17
2018-06-18T03:31:46.475Z,7.63
2018-06-18T03:34:21.534Z,7.97
2018-06-18T03:36:57.228Z,9.53
2018-06-18T03:39:32.405Z,7.80
2018-06-18T03:42:07.772Z,6.40
2018-06-18T03:45:49.637Z,8.60
2018-06-18T03:48:24.726Z,7.80
2018-06-18T03:50:59.355Z,7.83
2018-06-18T03:53:34.042Z,8.80
2018-06-18T03:56:09.257Z,7.43
2018-06-18T03:58:43.576Z,9.30
2018-06-18T04:02:00.918Z,8.33
2018-06-18T04:04:53.310Z,7.13
2018-06-18T04:07:35.631Z,7.10
2018-06-18T04:10:16.038Z,7.60
2018-06-18T04:12:51.187Z,8.27
2018-06-18T04:15:25.689Z,8.30
2018-06-18T04:18:00.577Z,8.10
2018-06-18T04:20:48.493Z,9.30
2018-06-18T04:23:23.502Z,9.63
2018-06-18T04:25:58.210Z,7.70
2018-06-18T04:28:32.866Z,9.50
2018-06-18T04:31:07.244Z,8.70
2018-06-18T04:33:53.280Z,8.53
2018-06-18T04:36:28.208Z,7.60
2018-06-18T04:39:04.255Z,6.37
2018-06-18T04:41:43.234Z,7.60
2018-06-18T04:44:23.118Z,8.87
2018-06-18T04:49:10.753Z,9.73
2018-06-18T04:51:45.820Z,8.53
2018-06-18T04:54:20.657Z,9.57
2018-06-18T04:56:55.363Z,9.30
2018-06-18T04:59:31.926Z,10.03
2018-06-18T05:02:06.137Z,7.60
2018-06-18T05:04:40.721Z,7.17
2018-06-18T05:07:15.721Z,8.00
2018-06-18T05:09:59.485Z,9.20
2018-06-18T05:12:33.753Z,7.27
2018-06-18T05:15:08.558Z,6.60
2018-06-18T05:17:44.456Z,6.70
2018-06-18T05:20:19.057Z,7.83
2018-06-18T05:22:53.681Z,7.80
2018-06-18T05:25:29.918Z,8.70
2018-06-18T05:28:04.488Z,8.90
2018-06-18T05:30:39.047Z,7.13
2018-06-18T05:33:13.509Z,7.53
2018-06-18T05:35:48.247Z,7.40
2018-06-18T05:38:33.637Z,7.90
2018-06-18T05:41:07.669Z,8.47
2018-06-18T05:43:42.751Z,7.43
2018-06-18T05:46:17.366Z,9.60
2018-06-18T05:48:51.898Z,7.57
2018-06-18T05:51:26.643Z,7.20
2018-06-18T05:54:01.344Z,8.67
2018-06-18T05:56:36.484Z,6.50
2018-06-18T05:59:11.041Z,6.87
2018-06-18T06:01:45.501Z,6.30
2018-06-18T06:04:20.151Z,6.27
2018-06-18T06:06:55.196Z,6.10
2018-06-18T06:09:29.574Z,5.00
2018-06-18T06:12:04.949Z,4.90
2018-06-18T06:14:39.932Z,4.87
2018-06-18T06:17:14.487Z,4.50
2018-06-18T06:19:49.062Z,4.33
2018-06-18T06:22:23.743Z,4.60
2018-06-18T06:24:58.444Z,4.50
2018-06-18T06:27:33.522Z,5.90
2018-06-18T06:30:07.944Z,6.50
2018-06-18T06:32:42.687Z,5.93
2018-06-18T06:35:22.182Z,5.13
2018-06-18T06:37:56.955Z,5.10
2018-06-18T06:40:31.601Z,5.07
2018-06-18T06:43:06.288Z,5.47
2018-06-18T06:45:40.864Z,5.80
2018-06-18T06:48:15.424Z,6.37
2018-06-18T06:50:50.370Z,5.83
2018-06-18T06:53:24.814Z,4.73
2018-06-18T06:55:59.249Z,4.97
2018-06-18T06:58:33.886Z,5.03
2018-06-18T07:01:08.997Z,4.83
2018-06-18T07:03:43.420Z,4.80
2018-06-18T07:06:18.102Z,4.20
2018-06-18T07:08:52.698Z,4.43
2018-06-18T07:11:27.194Z,4.67
2018-06-18T07:14:02.028Z,4.80
2018-06-18T07:16:36.210Z,5.10
2018-06-18T07:19:10.967Z,4.90
2018-06-18T07:21:45.444Z,4.93
2018-06-18T07:24:20.253Z,4.87
2018-06-18T07:26:54.719Z,4.67
2018-06-18T07:29:29.534Z,4.10
2018-06-18T07:32:04.359Z,3.93
2018-06-18T07:34:39.149Z,4.67
2018-06-18T07:37:14.026Z,3.93
2018-06-18T07:39:49.192Z,5.00
2018-06-18T07:42:23.508Z,4.80
2018-06-18T07:44:58.474Z,3.93
2018-06-18T07:47:33.003Z,4.33
2018-06-18T07:50:07.800Z,4.83
2018-06-18T07:52:42.789Z,4.30
2018-06-18T07:55:17.083Z,4.10
2018-06-18T07:57:51.591Z,3.90
2018-06-18T08:00:26.223Z,4.03
2018-06-18T08:03:01.289Z,4.20
2018-06-18T08:05:36.366Z,4.17
2018-06-18T08:08:11.187Z,3.93
2018-06-18T08:10:45.718Z,3.97
2018-06-18T08:13:20.102Z,3.93
2018-06-18T08:15:55.336Z,3.90
2018-06-18T08:18:30.382Z,3.87
2018-06-18T08:21:05.510Z,3.37
2018-06-18T08:23:39.707Z,3.07
2018-06-18T08:26:14.322Z,3.53
2018-06-18T08:28:48.858Z,3.87
2018-06-18T08:31:23.524Z,3.50
2018-06-18T08:33:58.794Z,4.10
2018-06-18T08:36:33.900Z,5.00
2018-06-18T08:39:09.701Z,4.13
2018-06-18T08:41:43.809Z,4.77
2018-06-18T08:44:18.961Z,4.57
2018-06-18T08:46:54.121Z,4.93
2018-06-18T08:49:28.391Z,4.40
2018-06-18T08:52:08.566Z,4.50
2018-06-18T08:54:49.202Z,4.20
2018-06-18T08:57:29.876Z,4.53
2018-06-18T09:00:10.688Z,4.57
2018-06-18T09:02:53.093Z,3.83
2018-06-18T09:05:33.662Z,5.80
2018-06-18T09:08:16.613Z,4.67
2018-06-18T09:10:52.395Z,4.90
2018-06-18T09:13:27.433Z,4.47
2018-06-18T09:16:01.980Z,3.97
2018-06-18T09:18:36.445Z,4.20
2018-06-18T09:21:11.686Z,3.70
2018-06-18T09:23:46.640Z,4.20
2018-06-18T09:26:21.079Z,4.97
2018-06-18T09:28:56.651Z,3.57
2018-06-18T09:31:31.298Z,4.47
2018-06-18T09:34:06.190Z,5.10
2018-06-18T09:36:40.745Z,4.57
2018-06-18T09:39:15.380Z,4.13
2018-06-18T09:41:50.104Z,5.30
2018-06-18T09:44:24.785Z,4.00
2018-06-18T09:46:59.294Z,3.93
2018-06-18T09:49:39.181Z,4.33
2018-06-18T09:52:19.476Z,4.33
2018-06-18T09:54:59.588Z,4.80
2018-06-18T09:57:40.427Z,4.50
2018-06-18T10:00:38.296Z,4.37
2018-06-18T10:03:12.884Z,3.57
2018-06-18T10:05:47.574Z,4.43
2018-06-18T10:08:22.259Z,3.60
2018-06-18T10:10:56.826Z,4.10
2018-06-18T10:13:31.182Z,3.43
2018-06-18T10:16:06.319Z,3.57
2018-06-18T10:18:41.301Z,3.80
2018-06-18T10:21:16.060Z,3.60
2018-06-18T10:23:50.798Z,4.10
2018-06-18T10:26:25.294Z,4.57
2018-06-18T10:28:59.948Z,3.37
2018-06-18T10:31:34.528Z,3.93
2018-06-18T10:34:14.923Z,5.20
2018-06-18T10:36:55.321Z,4.63
2018-06-18T10:39:35.784Z,3.80
2018-06-18T10:42:15.762Z,3.67
2018-06-18T10:44:50.586Z,3.80
2018-06-18T10:47:25.414Z,3.33
2018-06-18T10:50:00.539Z,3.80
2018-06-18T10:52:35.610Z,3.00
2018-06-18T10:55:09.840Z,3.37
2018-06-18T10:57:44.473Z,3.83
2018-06-18T11:00:23.816Z,3.73
2018-06-18T11:02:58.484Z,3.40
2018-06-18T11:05:38.674Z,3.43
2018-06-18T11:08:13.811Z,3.40
2018-06-18T11:10:48.230Z,4.00
2018-06-18T11:13:23.144Z,3.10
2018-06-18T11:15:57.709Z,3.10
2018-06-18T11:18:37.660Z,3.27
2018-06-18T11:21:18.431Z,3.20
2018-06-18T11:23:58.958Z,21.23
2018-06-18T11:26:39.496Z,4.03
2018-06-18T11:29:15.005Z,4.00
2018-06-18T11:31:50.041Z,3.60
2018-06-18T11:34:24.746Z,4.30
2018-06-18T11:36:59.236Z,3.40
2018-06-18T11:39:33.806Z,3.00
2018-06-18T11:42:08.630Z,4.07
2018-06-18T11:44:43.060Z,3.40
2018-06-18T11:47:17.917Z,2.97
2018-06-18T11:49:53.022Z,3.80
2018-06-18T11:52:27.542Z,3.70
2018-06-18T11:55:02.279Z,3.70
2018-06-18T11:57:37.170Z,3.80
2018-06-18T12:00:17.354Z,3.27
2018-06-18T12:02:58.083Z,3.30
2018-06-18T12:05:40.022Z,3.63
2018-06-18T12:08:20.551Z,3.20
2018-06-18T12:10:55.786Z,3.50
2018-06-18T12:13:29.879Z,2.97
2018-06-18T12:16:04.579Z,3.10
2018-06-18T12:18:38.774Z,3.30
2018-06-18T12:21:13.496Z,3.40
2018-06-18T12:23:49.014Z,2.90
2018-06-18T12:26:23.741Z,3.80
2018-06-18T12:28:58.197Z,3.60
2018-06-18T12:31:33.007Z,3.00
2018-06-18T12:34:07.347Z,3.10
2018-06-18T12:36:41.814Z,3.83
2018-06-18T12:39:16.248Z,2.93
2018-06-18T12:41:57.545Z,2.97
2018-06-18T12:44:40.681Z,3.17
2018-06-18T12:47:21.138Z,2.70
2018-06-18T12:51:02.443Z,3.50
2018-06-18T12:53:42.893Z,3.13
2018-06-18T12:56:22.757Z,2.73
2018-06-18T12:58:57.558Z,2.73
2018-06-18T13:01:36.242Z,3.13
2018-06-18T13:04:10.988Z,3.03
2018-06-18T13:06:47.096Z,3.40
2018-06-18T13:09:23.595Z,3.00
2018-06-18T13:11:57.963Z,2.70
2018-06-18T13:14:32.412Z,3.70
2018-06-18T13:17:07.480Z,3.13
2018-06-18T13:19:42.498Z,2.93
2018-06-18T13:22:17.273Z,2.77
2018-06-18T13:24:51.961Z,2.67
2018-06-18T13:27:31.965Z,3.43
2018-06-18T13:30:07.110Z,2.80
2018-06-18T13:32:41.879Z,2.83
2018-06-18T13:35:16.909Z,2.90
2018-06-18T13:37:58.640Z,3.90
2018-06-18T13:40:39.129Z,3.63
2018-06-18T13:43:19.542Z,3.90
2018-06-18T13:46:01.225Z,2.90
2018-06-18T13:48:41.475Z,3.50
2018-06-18T13:51:16.833Z,2.87
2018-06-18T13:53:52.913Z,2.87
2018-06-18T13:56:28.185Z,2.80
2018-06-18T13:59:03.047Z,2.70
2018-06-18T14:01:38.778Z,2.90
2018-06-18T14:04:13.826Z,3.07
2018-06-18T14:06:48.745Z,2.53
2018-06-18T14:09:23.627Z,3.30
2018-06-18T14:11:58.742Z,3.23
2018-06-18T14:14:34.675Z,2.90
2018-06-18T14:17:09.161Z,2.87
2018-06-18T14:19:49.311Z,3.63
2018-06-18T14:22:24.468Z,3.70
2018-06-18T14:24:59.618Z,3.40
2018-06-18T14:27:34.659Z,3.33
2018-06-18T14:30:15.432Z,2.90
2018-06-18T14:32:55.764Z,2.70
2018-06-18T14:35:37.813Z,4.23
2018-06-18T14:38:18.022Z,4.07
2018-06-18T14:40:53.488Z,4.73
2018-06-18T14:43:28.380Z,3.07
2018-06-18T14:46:03.412Z,2.97
2018-06-18T14:48:37.792Z,2.70
2018-06-18T14:51:12.283Z,2.67
2018-06-18T14:53:48.002Z,3.13
2018-06-18T14:56:26.502Z,3.13
2018-06-18T14:59:08.500Z,3.17
2018-06-18T15:01:43.940Z,3.10
2018-06-18T15:04:18.468Z,3.00
2018-06-18T15:06:52.876Z,2.87
2018-06-18T15:09:27.979Z,2.83
2018-06-18T15:12:02.616Z,2.17
2018-06-18T15:14:38.095Z,2.70
2018-06-18T15:17:13.252Z,2.70
2018-06-18T15:19:48.018Z,3.43
2018-06-18T15:22:25.567Z,3.53
2018-06-18T15:25:07.618Z,2.67
2018-06-18T15:27:42.922Z,3.23
2018-06-18T15:30:17.868Z,2.37
2018-06-18T15:32:52.761Z,2.83
2018-06-18T15:35:27.310Z,3.47
2018-06-18T15:38:01.741Z,3.20
2018-06-18T15:40:36.469Z,3.23
2018-06-18T15:43:11.984Z,2.53
2018-06-18T15:45:47.196Z,2.87
2018-06-18T15:48:21.980Z,3.07
2018-06-18T15:50:57.030Z,2.90
2018-06-18T15:53:32.333Z,5.77
2018-06-18T15:56:07.522Z,4.37
2018-06-18T15:58:42.960Z,3.53
2018-06-18T16:01:18.448Z,3.60
2018-06-18T16:03:53.164Z,4.00
2018-06-18T16:06:29.022Z,3.87
2018-06-18T16:09:06.914Z,3.70
2018-06-18T16:11:42.399Z,3.03
2018-06-18T16:14:17.789Z,3.40
2018-06-18T16:16:53.224Z,2.90
2018-06-18T16:19:27.610Z,3.07
2018-06-18T16:22:02.791Z,2.73
2018-06-18T16:24:37.444Z,3.40
2018-06-18T16:27:12.002Z,2.77
2018-06-18T16:29:46.538Z,3.13
2018-06-18T16:32:21.134Z,2.97
2018-06-18T16:34:55.950Z,2.87
2018-06-18T16:37:30.614Z,2.77
2018-06-18T16:40:05.010Z,3.67
2018-06-18T16:42:39.949Z,3.57
2018-06-18T16:45:14.365Z,3.03
2018-06-18T16:47:48.760Z,2.90
2018-06-18T16:50:23.636Z,3.47
2018-06-18T16:52:58.174Z,3.17
2018-06-18T16:55:33.145Z,3.60
2018-06-18T16:58:08.638Z,2.77
2018-06-18T17:00:43.257Z,3.10
2018-06-18T17:03:17.948Z,3.07
2018-06-18T17:05:52.538Z,2.80
2018-06-18T17:08:26.798Z,3.10
2018-06-18T17:11:01.818Z,2.93
2018-06-18T17:13:35.982Z,2.73
2018-06-18T17:16:11.174Z,2.80
2018-06-18T17:18:45.335Z,2.90
2018-06-18T17:21:20.896Z,3.23
2018-06-18T17:23:56.085Z,2.60
2018-06-18T17:26:30.887Z,3.27
2018-06-18T17:29:05.511Z,2.77
2018-06-18T17:31:40.122Z,3.03
2018-06-18T17:34:14.962Z,2.97
2018-06-18T17:36:49.893Z,4.30
2018-06-18T17:39:24.373Z,4.57
2018-06-18T17:41:59.736Z,3.00
2018-06-18T17:44:35.035Z,3.03
2018-06-18T17:47:09.706Z,3.27
2018-06-18T17:49:44.586Z,3.93
2018-06-18T17:52:19.709Z,2.73
2018-06-18T17:54:53.840Z,4.20
2018-06-18T17:57:29.498Z,3.83
2018-06-18T18:00:05.388Z,3.80
2018-06-18T18:02:40.040Z,3.40
2018-06-18T18:05:14.882Z,4.23
2018-06-18T18:07:49.883Z,3.77
2018-06-18T18:10:24.288Z,4.40
2018-06-18T18:12:59.075Z,4.07
2018-06-18T18:15:33.877Z,4.50
2018-06-18T18:18:08.406Z,4.33
2018-06-18T18:20:43.217Z,3.37
2018-06-18T18:23:17.965Z,3.40
2018-06-18T18:25:52.439Z,3.00
2018-06-18T18:28:27.826Z,3.37
2018-06-18T18:31:02.738Z,2.90
2018-06-18T18:33:37.513Z,2.80
2018-06-18T18:36:12.036Z,4.00
2018-06-18T18:38:46.988Z,3.23
2018-06-18T18:41:21.647Z,3.30
2018-06-18T18:43:56.103Z,2.93
2018-06-18T18:46:31.089Z,3.27
2018-06-18T18:49:06.417Z,3.00
2018-06-18T18:51:41.687Z,3.53
2018-06-18T18:55:36.382Z,3.93
2018-06-18T18:58:58.365Z,2.60
2018-06-18T19:01:34.287Z,3.40
2018-06-18T19:04:14.995Z,2.63
2018-06-18T19:06:51.057Z,3.43
2018-06-18T19:09:32.690Z,3.30
2018-06-18T19:12:08.567Z,3.60
2018-06-18T19:14:45.665Z,3.80
2018-06-18T19:17:23.225Z,3.20
2018-06-18T19:20:16.130Z,3.03
2018-06-18T19:22:53.477Z,3.17
2018-06-18T19:25:30.042Z,3.57
2018-06-18T19:28:06.834Z,3.17
2018-06-18T19:30:47.021Z,3.50
2018-06-18T19:33:33.367Z,3.47
2018-06-18T19:36:09.661Z,3.57
2018-06-18T19:38:45.630Z,3.50
2018-06-18T19:41:21.758Z,3.70
2018-06-18T19:43:57.251Z,3.20
2018-06-18T19:47:00.444Z,3.97
2018-06-18T19:49:36.423Z,4.13
2018-06-18T19:52:11.913Z,4.20
2018-06-18T19:54:54.769Z,4.07
2018-06-18T19:57:30.618Z,3.13
2018-06-18T20:00:05.867Z,3.90
2018-06-18T20:02:41.601Z,4.43
2018-06-18T20:05:17.162Z,5.70
2018-06-18T20:08:01.601Z,5.17
2018-06-18T20:10:36.663Z,5.70
2018-06-18T20:13:12.673Z,5.43
2018-06-18T20:15:47.291Z,5.00
2018-06-18T20:18:22.127Z,5.97
2018-06-18T20:20:57.436Z,6.40
2018-06-18T20:23:32.259Z,7.13
2018-06-18T20:26:13.534Z,7.47
2018-06-18T20:28:48.359Z,7.17
2018-06-18T20:31:23.131Z,7.60
2018-06-18T20:33:58.375Z,8.03
2018-06-18T20:36:33.718Z,7.90
2018-06-18T20:39:10.947Z,7.13
2018-06-18T20:41:45.794Z,6.53
2018-06-18T20:44:23.362Z,6.70
2018-06-18T20:46:58.143Z,7.43
2018-06-18T20:49:32.719Z,7.30
2018-06-18T20:52:07.502Z,8.10
2018-06-18T20:54:42.082Z,7.67
2018-06-18T20:57:17.065Z,8.00
2018-06-18T20:59:51.420Z,8.00
2018-06-18T21:02:26.205Z,7.90
2018-06-18T21:05:00.777Z,7.73
2018-06-18T21:07:35.674Z,7.30
2018-06-18T21:10:10.146Z,7.00
2018-06-18T21:12:44.929Z,6.90
2018-06-18T21:15:19.548Z,6.73
2018-06-18T21:17:54.492Z,8.07
2018-06-18T21:20:29.504Z,6.40
2018-06-18T21:23:06.389Z,6.77
2018-06-18T21:25:40.614Z,6.53
2018-06-18T21:28:15.748Z,7.47
2018-06-18T21:30:50.282Z,6.77
2018-06-18T21:33:25.462Z,7.57
2018-06-18T21:35:59.775Z,7.63
2018-06-18T21:38:34.653Z,7.77
2018-06-18T21:41:09.473Z,7.17
2018-06-18T21:43:44.238Z,7.70
2018-06-18T21:46:18.929Z,7.47
2018-06-18T21:48:53.920Z,6.10
2018-06-18T21:51:28.318Z,7.10
2018-06-18T21:54:03.198Z,6.50
2018-06-18T21:56:38.244Z,7.73
2018-06-18T21:59:12.951Z,6.70
2018-06-18T22:01:48.542Z,7.00
2018-06-18T22:04:23.371Z,8.07
2018-06-18T22:06:58.098Z,8.73
2018-06-18T22:09:32.965Z,7.30
2018-06-18T22:12:07.387Z,8.07
2018-06-18T22:14:42.734Z,7.00
2018-06-18T22:17:17.012Z,7.27
2018-06-18T22:19:52.089Z,7.77
2018-06-18T22:22:26.160Z,7.37
2018-06-18T22:25:01.134Z,8.40
2018-06-18T22:27:36.185Z,7.60
2018-06-18T22:30:10.943Z,6.83
2018-06-18T22:32:45.583Z,7.40
2018-06-18T22:35:21.067Z,7.20
2018-06-18T22:37:56.280Z,7.10
2018-06-18T22:40:31.355Z,7.10
2018-06-18T22:43:06.184Z,6.40
2018-06-18T22:45:40.375Z,6.50
2018-06-18T22:48:14.932Z,6.87
2018-06-18T22:50:49.736Z,7.40
2018-06-18T22:53:24.195Z,6.30
2018-06-18T22:55:59.006Z,6.60
2018-06-18T22:58:33.502Z,7.20
2018-06-18T23:01:08.233Z,6.53
2018-06-18T23:03:42.823Z,6.70
2018-06-18T23:06:17.848Z,6.97
2018-06-18T23:08:52.406Z,6.93
2018-06-18T23:11:27.161Z,7.20
2018-06-18T23:14:02.678Z,6.53
2018-06-18T23:16:37.310Z,6.70
2018-06-18T23:19:12.222Z,6.27
2018-06-18T23:21:46.740Z,6.87
2018-06-18T23:24:21.940Z,6.63
2018-06-18T23:26:56.300Z,6.43
2018-06-18T23:29:30.948Z,6.20
2018-06-18T23:32:05.893Z,6.53
2018-06-18T23:34:40.750Z,7.03
2018-06-18T23:37:15.437Z,6.53
2018-06-18T23:39:50.605Z,7.77
2018-06-18T23:42:25.632Z,7.87
2018-06-18T23:45:00.521Z,6.40
2018-06-18T23:47:35.855Z,6.40
2018-06-18T23:50:10.122Z,6.80
2018-06-18T23:52:44.970Z,7.07
2018-06-18T23:55:19.370Z,7.30
2018-06-18T23:57:53.970Z,6.30
